Nearby METAR Reports

 

KHFD - Hartford/Brainar, Connecticut, USA
Distance from station: ESE 5mi, 8km
Updated: Tue, 01-Dec-2020 1:53am EST
Mostly cloudy
Mostly cloudy
 Wind from S
Wind: S 9 mph , 15 km/h
Temperature: 61°F , 16°C
Dew Point: 55°F , 13°C
Humidity: 83%
Barometer: 29.48 inHg , 998.3 hPa
Clouds: Mostly cloudy
Visibility: 8 miles , 13 km
Cloud details: Few Clouds 1800 ft
Mostly cloudy 6000 ft
2020/12/01 06:53 KHFD 010653Z AUTO 17008KT 8SM FEW018 BKN060 16/13 A2948 RMK AO2 SLP984 T01610133
KBDL - Windsor Locks, Connecticut, USA
Distance from station: NNE 12mi, 20km
Updated: Tue, 01-Dec-2020 2:39am EST
Partly cloudy
Partly cloudy
 Wind from SSE
Wind: SSE 7 mph , 11 km/h
Temperature: 57°F , 14°C
Dew Point: 55°F , 13°C
Humidity: 94%
Barometer: 29.48 inHg , 998.3 hPa
Clouds: Partly cloudy
Visibility: 8 miles , 13 km
Cloud details: Partly cloudy 1500 ft
Partly cloudy 5500 ft
2020/12/01 07:39 KBDL 010739Z 15006KT 8SM SCT015 SCT055 14/13 A2948 RMK AO2 T01440128 $
 
KMMK - Meriden, Connecticut, USA
Distance from station: SSW 18mi, 28km
Updated: Tue, 01-Dec-2020 2:46am EST
Overcast
Overcast
 Wind from SSE
Wind: SSE 13 mph , 20 km/h
Temperature: 59°F , 15°C
Dew Point: 55°F , 13°C
Humidity: 88%
Barometer: 29.50 inHg , 999 hPa
Clouds: Overcast
Visibility: 9 miles , 14 km
Cloud details: Overcast 900 ft
2020/12/01 07:46 KMMK 010746Z AUTO 16011KT 9SM OVC009 15/13 A2950 RMK AO2 T01500133 $
KBAF - Westfield, Massachusetts, USA
Distance from station: N 28mi, 45km
Updated: Tue, 01-Dec-2020 1:53am EST
Overcast
Overcast
 Wind from S
Wind: S 7 mph , 11 km/h
Temperature: 61°F , 16°C
Dew Point: 57°F , 14°C
Humidity: 88%
Barometer: 29.47 inHg , 998 hPa
Clouds: Overcast
Visibility: 10 miles , 16 km
Cloud details: Overcast 2300 ft
2020/12/01 06:53 KBAF 010653Z AUTO 17006KT 10SM OVC023 16/14 A2947 RMK AO2 SLP981 T01560144
 
KIJD - Willimantic, Connecticut, USA
Distance from station: E 29mi, 46km
Updated: Tue, 01-Dec-2020 2:31am EST
Overcast
Overcast
 Wind from S
Wind: S 6 mph , 9 km/h
Temperature: 63°F , 17°C
Dew Point: 59°F , 15°C
Humidity: 88%
Barometer: 29.52 inHg , 999.7 hPa
Clouds: Overcast
Visibility: 8 miles , 13 km
Cloud details: Overcast 1300 ft
2020/12/01 07:31 KIJD 010731Z AUTO 17005KT 8SM OVC013 17/15 A2952 RMK AO2 T01670150
KOXC - Oxford/Waterbury, Connecticut, USA
Distance from station: SW 29mi, 46km
Updated: Tue, 01-Dec-2020 2:21am EST
Mist, Overcast
Mist, Overcast
 Wind from S
Wind: S 13 mph , 20 km/h, Gust: 18 mph , 30 km/h
Temperature: 57°F , 14°C
Dew Point: 57°F , 14°C
Humidity: 100%
Barometer: 29.49 inHg , 998.6 hPa
Summary: Mist
Clouds: Overcast
Visibility: 2 1/2 miles , 4 km
Cloud details: Overcast 200 ft
2020/12/01 07:21 KOXC 010721Z AUTO 17011G16KT 2 1/2SM BR OVC002 14/14 A2949 RMK AO2
 
KSNC - Chester, Connecticut, USA
Distance from station: SSE 29mi, 47km
Updated: Tue, 01-Dec-2020 2:35am EST
Mist, Overcast
Mist, Overcast
 Wind from SSE
Wind: SSE 12 mph , 19 km/h
Temperature: 59°F , 15°C
Dew Point: 59°F , 15°C
Humidity: 100%
Barometer: 29.52 inHg , 999.7 hPa
Summary: Mist
Clouds: Overcast
Visibility: 3 miles , 5 km
Cloud details: Overcast 200 ft
2020/12/01 07:35 KSNC 010735Z AUTO 16010KT 3SM BR OVC002 15/15 A2952 RMK AO2
KCEF - Chicopee/Westove, Massachusetts, USA
Distance from station: NNE 32mi, 52km
Updated: Tue, 01-Dec-2020 1:56am EST
Overcast
Overcast
 Wind from S
Wind: S 6 mph , 9 km/h
Temperature: 61°F , 16°C
Dew Point: 57°F , 14°C
Humidity: 88%
Barometer: 29.47 inHg , 998 hPa
Clouds: Overcast
Visibility: 10 miles , 16 km
Cloud details: Overcast 1700 ft
2020/12/01 06:56 KCEF 010656Z AUTO 17005KT 10SM OVC017 16/14 A2947 RMK AO2 SLP985 T01590141
 
KHVN - New Haven/Tweed, Connecticut, USA
Distance from station: S 35mi, 56km
Updated: Tue, 01-Dec-2020 2:07am EST
Mist, Few clouds
Mist, Few clouds
 Wind from SSE
Wind: SSE 13 mph , 20 km/h
Temperature: 59°F , 15°C
Dew Point: 57°F , 14°C
Humidity: 94%
Barometer: 29.49 inHg , 998.6 hPa
Summary: Mist
Clouds: Few Clouds
Visibility: 4 miles , 6 km
Cloud details: Few Clouds 900 ft
2020/12/01 07:07 KHVN 010707Z AUTO 15011KT 4SM BR FEW009 15/14 A2949 RMK AO2 T01500139 $
KBDR - Bridgeport, Connecticut, USA
Distance from station: SSW 46mi, 74km
Updated: Tue, 01-Dec-2020 2:15am EST
Partly cloudy
Partly cloudy
 Wind from S
Wind: S 13 mph , 20 km/h
Temperature: 57°F , 14°C
Dew Point: 55°F , 13°C
Humidity: 94%
Barometer: 29.49 inHg , 998.6 hPa
Clouds: Partly cloudy
Visibility: 7 miles , 11 km
Cloud details: Partly cloudy 900 ft
2020/12/01 07:15 KBDR 010715Z AUTO 17011KT 7SM SCT009 14/13 A2949 RMK AO2 T01390128
 
KGON - Groton/New Londo, Connecticut, USA
Distance from station: SE 46mi, 75km
Updated: Tue, 01-Dec-2020 2:42am EST
Mist, Overcast
Mist, Overcast
 Wind from S
Wind: S 13 mph , 20 km/h
Temperature: 57°F , 14°C
Dew Point: 57°F , 14°C
Humidity: 100%
Barometer: 29.53 inHg , 1000 hPa
Summary: Mist
Clouds: Overcast
Visibility: 2 1/2 miles , 4 km
Cloud details: Overcast 300 ft
2020/12/01 07:42 KGON 010742Z AUTO 19011KT 2 1/2SM BR OVC003 14/14 A2953 RMK AO2 T01440144 $
KDXR - Danbury, Connecticut, USA
Distance from station: SW 47mi, 76km
Updated: Tue, 01-Dec-2020 1:53am EST
Overcast
Overcast
 Wind from SE
Wind: SE 7 mph , 11 km/h
Temperature: 57°F , 14°C
Dew Point: 55°F , 13°C
Humidity: 94%
Barometer: 29.46 inHg , 997.6 hPa
Clouds: Overcast
Visibility: 8 miles , 13 km
Cloud details: Overcast 600 ft
2020/12/01 06:53 KDXR 010653Z AUTO 13006KT 8SM OVC006 14/13 A2946 RMK AO2 SLP975 T01390133
 
KPSF - Pittsfield, Massachusetts, USA
Distance from station: NNW 54mi, 87km
Updated: Tue, 01-Dec-2020 1:54am EST
Overcast
Overcast
 Wind from S
Wind: S 8 mph , 13 km/h
Temperature: 57°F , 14°C
Dew Point: 54°F , 12°C
Humidity: 88%
Barometer: 29.44 inHg , 997 hPa
Clouds: Overcast
Visibility: 10 miles , 16 km
Cloud details: Mostly cloudy 1500 ft
Mostly cloudy 2200 ft
Overcast 2800 ft
2020/12/01 06:54 KPSF 010654Z AUTO 19007KT 10SM BKN015 BKN022 OVC028 14/12 A2944 RMK AO2 RAB20E29 SLP958 P0000 T01440117
KWST - Westerly, Rhode Island, USA
Distance from station: ESE 56mi, 91km
Updated: Tue, 01-Dec-2020 2:40am EST
Mist, Overcast
Mist, Overcast
 Wind from S
Wind: S 9 mph , 15 km/h
Temperature: 59°F , 15°C
Dew Point: 57°F , 14°C
Humidity: 94%
Barometer: 29.55 inHg , 1000.7 hPa
Summary: Mist
Clouds: Overcast
Visibility: 3 miles , 5 km
Cloud details: Mostly cloudy 400 ft
Overcast 800 ft
2020/12/01 07:40 KWST 010740Z AUTO 18008KT 3SM BR BKN004 OVC008 15/14 A2955 RMK AO2 T01500144
 
KORH - Worcester, Massachusetts, USA
Distance from station: NE 57mi, 92km
Updated: Tue, 01-Dec-2020 2:40am EST
Overcast
Overcast
 Wind from S
Wind: S 17 mph , 28 km/h
Temperature: 61°F , 16°C
Dew Point: 57°F , 14°C
Humidity: 88%
Barometer: 29.54 inHg , 1000.3 hPa
Clouds: Overcast
Visibility: 10 miles , 16 km
Cloud details: Few Clouds 900 ft
Mostly cloudy 1500 ft
Overcast 4000 ft
2020/12/01 07:40 KORH 010740Z AUTO 18015KT 10SM FEW009 BKN015 OVC040 16/14 A2954 RMK AO2 T01610139
KPOU - Poughkeepsie, New York, USA
Distance from station: W 60mi, 96km
Updated: Tue, 01-Dec-2020 2:45am EST
Mist, Partly cloudy
Mist, Partly cloudy
 Wind from calm
Wind: Calm
Temperature: 52°F , 11°C
Dew Point: 50°F , 10°C
Humidity: 94%
Barometer: 29.45 inHg , 997.3 hPa
Summary: Mist
Clouds: Partly cloudy
Visibility: 1 mile , 2 km
Cloud details: Partly cloudy 2300 ft
2020/12/01 07:45 KPOU 010745Z AUTO 00000KT 1SM BR SCT023 11/10 A2945 RMK AO2 T01060100 TSNO
 
KORE - Orange, Massachusetts, USA
Distance from station: NNE 60mi, 97km
Updated: Tue, 01-Dec-2020 1:52am EST
Mostly cloudy
Mostly cloudy
 Wind from S
Wind: S 7 mph , 11 km/h
Temperature: 61°F , 16°C
Dew Point: 57°F , 14°C
Humidity: 88%
Barometer: 29.49 inHg , 998.6 hPa
Clouds: Mostly cloudy
Visibility: 10 miles , 16 km
Cloud details: Mostly cloudy 2000 ft
2020/12/01 06:52 KORE 010652Z AUTO 18006KT 10SM BKN020 16/14 A2949 RMK AO2 SLP988 T01610139
KHTO - East Hampton, New York, USA
Distance from station: SSE 62mi, 99km
Updated: Tue, 01-Dec-2020 2:35am EST
Mist, Mostly cloudy
Mist, Mostly cloudy
 Wind from S
Wind: S 8 mph , 13 km/h
Temperature: 57°F , 14°C
Dew Point: 57°F , 14°C
Humidity: 100%
Barometer: 29.54 inHg , 1000.3 hPa
Summary: Mist
Clouds: Mostly cloudy
Visibility: 4 miles , 6 km
Cloud details: Mostly cloudy 5000 ft
2020/12/01 07:35 KHTO 010735Z AUTO 18007KT 4SM BR BKN050 14/14 A2954 RMK AO2 T01430140
 
KFOK - Westhampton Beac, New York, USA
Distance from station: S 63mi, 102km
Updated: Tue, 01-Dec-2020 1:53am EST
Mist, Mostly cloudy
Mist, Mostly cloudy
 Wind from S
Wind: S 7 mph , 11 km/h
Temperature: 57°F , 14°C
Dew Point: 57°F , 14°C
Humidity: 100%
Barometer: 29.52 inHg , 999.7 hPa
Summary: Mist
Clouds: Mostly cloudy
Visibility: 5 miles , 8 km
Cloud details: Few Clouds 600 ft
Mostly cloudy 5000 ft
2020/12/01 06:53 KFOK 010653Z AUTO 18006KT 5SM BR FEW006 BKN050 14/14 A2952 RMK AO2 SLP997 T01440139
KMTP - Montauk, New York, USA
Distance from station: SE 64mi, 104km
Updated: Tue, 01-Dec-2020 1:54am EST

 Wind from S
Wind: S 7 mph , 11 km/h
Temperature: 61°F , 16°C
Dew Point: 57°F , 14°C
Humidity: 88%
Barometer: 29.54 inHg , 1000.3 hPa
2020/12/01 06:54 KMTP 010654Z AUTO 17006KT 16/14 A2954 RMK AO1 SLP002 T01560144 $